createdAt,value
2022-08-03T00:02:15.606Z,66.04
2022-08-03T00:04:42.904Z,65.78
2022-08-03T00:07:10.026Z,66.39
2022-08-03T00:09:37.181Z,66.18
2022-08-03T00:12:04.472Z,66.25
2022-08-03T00:14:31.483Z,66.24
2022-08-03T00:16:58.685Z,66.35
2022-08-03T00:19:25.894Z,66.33
2022-08-03T00:21:52.928Z,66.69
2022-08-03T00:24:20.207Z,66.72
2022-08-03T00:26:47.454Z,66.53
2022-08-03T00:29:14.451Z,67.14
2022-08-03T00:31:52.855Z,66.76
2022-08-03T00:34:36.553Z,66.33
2022-08-03T00:37:13.431Z,66.61
2022-08-03T00:39:41.108Z,66.89
2022-08-03T00:42:08.253Z,66.65
2022-08-03T00:44:43.224Z,66.75
2022-08-03T00:47:10.862Z,66.86
2022-08-03T00:49:41.078Z,66.78
2022-08-03T00:52:10.127Z,66.69
2022-08-03T00:54:38.457Z,66.89
2022-08-03T00:57:05.750Z,66.75
2022-08-03T00:59:32.847Z,67.05
2022-08-03T01:01:59.925Z,66.91
2022-08-03T01:04:26.987Z,67.22
2022-08-03T01:07:10.879Z,66.85
2022-08-03T01:09:56.647Z,66.93
2022-08-03T01:12:39.214Z,66.87
2022-08-03T01:15:24.420Z,67.38
2022-08-03T01:18:05.308Z,67.46
2022-08-03T01:20:39.019Z,67.12
2022-08-03T01:23:40.947Z,67.54
2022-08-03T01:26:41.400Z,67.54
2022-08-03T01:29:35.917Z,67.71
2022-08-03T01:33:00.126Z,67.37
2022-08-03T01:35:01.350Z,67.12
2022-08-03T01:37:38.851Z,67.12
2022-08-03T01:40:08.215Z,66.76
2022-08-03T01:42:38.073Z,66.59
2022-08-03T01:45:07.660Z,66.72
2022-08-03T01:47:35.809Z,67.09
2022-08-03T01:50:05.659Z,67.25
2022-08-03T01:52:34.035Z,67.10
2022-08-03T01:55:03.348Z,67.01
2022-08-03T01:57:31.412Z,66.85
2022-08-03T02:00:01.670Z,66.87
2022-08-03T02:02:39.839Z,66.79
2022-08-03T02:05:10.965Z,66.93
2022-08-03T02:07:40.959Z,66.34
2022-08-03T02:10:09.779Z,66.01
2022-08-03T02:12:39.095Z,66.18
2022-08-03T02:15:07.764Z,66.78
2022-08-03T02:17:39.486Z,66.64
2022-08-03T02:20:11.255Z,66.51
2022-08-03T02:22:42.776Z,66.36
2022-08-03T02:25:11.586Z,65.84
2022-08-03T02:27:50.450Z,65.85
2022-08-03T02:30:19.456Z,65.87
2022-08-03T02:32:57.357Z,66.52
2022-08-03T02:35:27.507Z,65.93
2022-08-03T02:38:01.416Z,65.93
2022-08-03T02:40:29.604Z,65.88
2022-08-03T02:43:00.621Z,65.77
2022-08-03T02:45:29.736Z,66.33
2022-08-03T02:48:03.075Z,66.27
2022-08-03T02:50:32.083Z,66.31
2022-08-03T02:53:01.790Z,65.97
2022-08-03T02:55:29.839Z,65.95
2022-08-03T02:58:01.691Z,66.19
2022-08-03T03:00:31.856Z,66.14
2022-08-03T03:03:00.851Z,66.24
2022-08-03T03:05:54.774Z,66.47
2022-08-03T03:08:20.662Z,66.77
2022-08-03T03:10:55.638Z,66.61
2022-08-03T03:13:23.582Z,66.67
2022-08-03T03:15:52.419Z,66.71
2022-08-03T03:18:22.748Z,66.33
2022-08-03T03:20:53.233Z,66.51
2022-08-03T03:23:22.547Z,66.93
2022-08-03T03:25:51.603Z,66.75
2022-08-03T03:28:19.380Z,66.91
2022-08-03T03:30:53.206Z,66.71
2022-08-03T03:33:22.042Z,66.73
2022-08-03T03:35:49.766Z,66.64
2022-08-03T03:38:16.895Z,66.33
2022-08-03T03:40:44.333Z,66.24
2022-08-03T03:43:12.853Z,66.28
2022-08-03T03:45:43.256Z,66.58
2022-08-03T03:48:10.518Z,66.55
2022-08-03T03:50:41.132Z,66.38
2022-08-03T03:53:12.628Z,66.58
2022-08-03T03:56:02.064Z,66.64
2022-08-03T03:58:27.880Z,66.38
2022-08-03T04:00:54.995Z,66.24
2022-08-03T04:03:22.222Z,66.65
2022-08-03T04:06:08.217Z,66.73
2022-08-03T04:08:54.168Z,66.02
2022-08-03T04:11:30.047Z,66.08
2022-08-03T04:14:19.979Z,66.43
2022-08-03T04:16:55.262Z,66.30
2022-08-03T04:19:43.896Z,66.13
2022-08-03T04:22:14.344Z,66.58
2022-08-03T04:24:47.100Z,67.09
2022-08-03T04:27:17.169Z,67.02
2022-08-03T04:29:48.549Z,66.72
2022-08-03T04:32:17.819Z,66.19
2022-08-03T04:34:45.518Z,66.10
2022-08-03T04:37:17.815Z,65.75
2022-08-03T04:39:45.175Z,65.97
2022-08-03T04:42:14.234Z,65.89
2022-08-03T04:44:44.602Z,66.12
2022-08-03T04:47:11.604Z,66.42
2022-08-03T04:49:39.522Z,65.93
2022-08-03T04:52:08.827Z,65.89
2022-08-03T04:54:48.692Z,66.07
2022-08-03T04:57:22.024Z,66.07
2022-08-03T04:59:59.586Z,66.24
2022-08-03T05:02:29.268Z,66.48
2022-08-03T05:04:56.491Z,66.11
2022-08-03T05:07:24.994Z,65.96
2022-08-03T05:10:01.745Z,66.12
2022-08-03T05:12:32.933Z,65.35
2022-08-03T05:15:01.050Z,65.34
2022-08-03T05:17:29.117Z,64.50
2022-08-03T05:19:56.872Z,64.03
2022-08-03T05:22:24.052Z,64.34
2022-08-03T05:24:51.443Z,64.09
2022-08-03T05:27:22.106Z,64.58
2022-08-03T05:29:50.558Z,64.43
2022-08-03T05:32:18.240Z,64.23
2022-08-03T05:34:45.492Z,64.17
2022-08-03T05:37:12.560Z,64.46
2022-08-03T05:39:39.670Z,64.80
2022-08-03T05:42:06.660Z,65.59
2022-08-03T05:44:33.719Z,65.55
2022-08-03T05:47:00.798Z,65.67
2022-08-03T05:49:28.100Z,66.17
2022-08-03T05:51:59.806Z,65.85
2022-08-03T05:54:56.211Z,66.03
2022-08-03T05:57:22.887Z,65.96
2022-08-03T05:59:55.696Z,65.71
2022-08-03T06:02:28.554Z,65.77
2022-08-03T06:04:55.610Z,65.09
2022-08-03T06:07:22.777Z,65.34
2022-08-03T06:10:35.941Z,64.83
2022-08-03T06:12:37.412Z,65.08
2022-08-03T06:15:05.726Z,65.16
2022-08-03T06:20:06.405Z,65.62
2022-08-03T06:22:33.848Z,65.23
2022-08-03T06:25:04.858Z,65.42
2022-08-03T06:27:37.083Z,64.69
2022-08-03T06:30:05.092Z,64.24
2022-08-03T06:32:32.245Z,63.68
2022-08-03T06:34:59.739Z,63.36
2022-08-03T06:37:27.399Z,62.88
2022-08-03T06:39:54.708Z,62.26
2022-08-03T06:42:22.629Z,61.80
2022-08-03T06:44:50.066Z,62.16
2022-08-03T06:47:17.432Z,62.11
2022-08-03T06:49:44.514Z,61.99
2022-08-03T06:52:38.171Z,61.15
2022-08-03T06:55:07.128Z,61.40
2022-08-03T06:57:34.130Z,61.19
2022-08-03T07:00:09.608Z,59.61
2022-08-03T07:02:40.185Z,58.09
2022-08-03T07:05:08.722Z,57.54
2022-08-03T07:07:36.247Z,57.38
2022-08-03T07:10:04.528Z,57.12
2022-08-03T07:12:32.637Z,57.89
2022-08-03T07:15:02.642Z,58.07
2022-08-03T07:17:31.938Z,57.65
2022-08-03T07:20:00.315Z,57.78
2022-08-03T07:22:27.869Z,57.56
2022-08-03T07:24:55.249Z,56.58
2022-08-03T07:27:22.733Z,55.86
2022-08-03T07:29:49.908Z,55.70
2022-08-03T07:32:17.082Z,55.95
2022-08-03T07:34:44.389Z,54.94
2022-08-03T07:37:11.730Z,54.61
2022-08-03T07:39:38.806Z,53.45
2022-08-03T07:42:06.040Z,53.22
2022-08-03T07:44:33.607Z,52.73
2022-08-03T07:47:03.340Z,52.88
2022-08-03T07:49:31.003Z,53.27
2022-08-03T07:52:17.809Z,51.58
2022-08-03T07:54:48.295Z,52.39
2022-08-03T07:57:15.791Z,51.89
2022-08-03T07:59:56.838Z,50.83
2022-08-03T08:02:39.583Z,50.94
2022-08-03T08:05:07.132Z,50.31
2022-08-03T08:07:34.303Z,50.00
2022-08-03T08:10:01.256Z,47.57
2022-08-03T08:12:28.468Z,47.43
2022-08-03T08:14:55.577Z,46.88
2022-08-03T08:17:22.687Z,46.19
2022-08-03T08:19:51.608Z,46.80
2022-08-03T08:22:29.931Z,43.82
2022-08-03T08:25:01.210Z,43.19
2022-08-03T08:28:31.871Z,44.19
2022-08-03T08:30:19.654Z,41.50
2022-08-03T08:32:47.839Z,40.34
2022-08-03T08:35:15.660Z,39.90
2022-08-03T08:37:43.587Z,39.95
2022-08-03T08:40:21.966Z,40.10
2022-08-03T08:42:58.564Z,39.96
2022-08-03T08:45:27.291Z,39.58
2022-08-03T08:48:01.648Z,38.11
2022-08-03T08:50:33.771Z,38.95
2022-08-03T08:53:04.019Z,38.61
2022-08-03T08:55:58.342Z,39.04
2022-08-03T08:58:22.561Z,40.09
2022-08-03T09:00:51.130Z,39.64
2022-08-03T09:03:28.985Z,39.15
2022-08-03T09:05:59.815Z,38.80
2022-08-03T09:08:27.038Z,38.69
2022-08-03T09:10:54.110Z,38.13
2022-08-03T09:13:21.450Z,38.24
2022-08-03T09:15:57.151Z,37.82
2022-08-03T09:18:32.739Z,37.73
2022-08-03T09:21:34.411Z,38.33
2022-08-03T09:24:05.799Z,36.79
2022-08-03T09:26:37.400Z,36.79
2022-08-03T09:29:14.623Z,36.58
2022-08-03T09:31:47.301Z,35.80
2022-08-03T09:34:17.695Z,35.04
2022-08-03T09:36:46.133Z,35.64
2022-08-03T09:39:18.462Z,35.60
2022-08-03T09:42:03.399Z,34.90
2022-08-03T09:44:44.456Z,35.57
2022-08-03T09:47:13.722Z,34.60
2022-08-03T09:49:42.666Z,34.29
2022-08-03T09:52:38.765Z,34.49
2022-08-03T09:56:30.422Z,33.96
2022-08-03T09:58:07.553Z,33.83
2022-08-03T10:00:52.614Z,32.73
2022-08-03T10:03:20.177Z,33.67
2022-08-03T10:05:48.086Z,33.36
2022-08-03T10:08:16.589Z,33.57
2022-08-03T10:10:44.973Z,32.14
2022-08-03T10:13:14.434Z,32.50
2022-08-03T10:16:21.519Z,32.72
2022-08-03T10:18:29.002Z,32.90
2022-08-03T10:21:04.921Z,33.09
2022-08-03T10:23:35.754Z,32.23
2022-08-03T10:26:04.983Z,32.31
2022-08-03T10:28:44.732Z,32.05
2022-08-03T10:31:14.385Z,32.27
2022-08-03T10:33:52.812Z,33.11
2022-08-03T10:36:25.067Z,33.60
2022-08-03T10:38:53.865Z,34.30
2022-08-03T10:41:23.573Z,33.78
2022-08-03T10:44:03.242Z,33.63
2022-08-03T10:46:30.309Z,32.80
2022-08-03T10:48:58.865Z,32.64
2022-08-03T10:51:30.718Z,32.98
2022-08-03T10:53:58.774Z,33.33
2022-08-03T10:56:54.695Z,33.13
2022-08-03T10:59:46.562Z,34.55
2022-08-03T11:02:14.478Z,34.48
2022-08-03T11:04:43.029Z,34.73
2022-08-03T11:07:16.595Z,35.60
2022-08-03T11:09:49.948Z,35.27
2022-08-03T11:12:29.887Z,34.89
2022-08-03T11:15:05.413Z,35.86
2022-08-03T11:17:45.809Z,34.61
2022-08-03T11:20:14.277Z,32.58
2022-08-03T11:22:51.716Z,32.94
2022-08-03T11:25:52.999Z,32.95
2022-08-03T11:28:42.335Z,33.31
2022-08-03T11:31:49.281Z,32.72
2022-08-03T11:34:17.785Z,32.25
2022-08-03T11:37:24.062Z,32.33
2022-08-03T11:39:54.950Z,32.03
2022-08-03T11:42:25.049Z,32.15
2022-08-03T11:44:54.043Z,33.09
2022-08-03T11:47:24.257Z,33.01
2022-08-03T11:49:54.283Z,33.06
2022-08-03T11:52:27.250Z,32.95
2022-08-03T11:54:56.528Z,33.58
2022-08-03T11:59:09.331Z,33.12
2022-08-03T12:00:28.078Z,32.90
2022-08-03T12:03:03.720Z,32.99
2022-08-03T12:05:56.956Z,32.98
2022-08-03T12:08:26.834Z,32.66
2022-08-03T12:10:55.719Z,33.19
2022-08-03T12:14:44.067Z,32.83
2022-08-03T12:16:22.292Z,34.18
2022-08-03T12:19:05.191Z,33.85
2022-08-03T12:21:32.673Z,32.67
2022-08-03T12:24:01.719Z,33.07
2022-08-03T12:26:58.261Z,32.70
2022-08-03T12:29:26.824Z,33.23
2022-08-03T12:31:54.115Z,33.37
2022-08-03T12:34:21.179Z,34.37
2022-08-03T12:36:56.772Z,34.87
2022-08-03T12:39:25.899Z,34.86
2022-08-03T12:41:54.587Z,34.97
2022-08-03T12:44:31.091Z,34.08
2022-08-03T12:46:59.303Z,33.98
2022-08-03T12:49:27.054Z,34.55
2022-08-03T12:51:54.189Z,33.34
2022-08-03T12:54:24.417Z,33.87
2022-08-03T12:57:15.875Z,34.10
2022-08-03T12:59:53.058Z,34.43
2022-08-03T13:02:24.176Z,33.65
2022-08-03T13:04:53.381Z,33.91
2022-08-03T13:07:21.660Z,33.83
2022-08-03T13:09:54.041Z,34.08
2022-08-03T13:12:26.540Z,34.18
2022-08-03T13:14:58.497Z,34.04
2022-08-03T13:17:27.282Z,33.93
2022-08-03T13:19:54.858Z,34.70
2022-08-03T13:22:24.338Z,34.26
2022-08-03T13:24:53.665Z,33.47
2022-08-03T13:28:01.233Z,33.32
2022-08-03T13:30:09.089Z,33.82
2022-08-03T13:32:36.644Z,34.55
2022-08-03T13:35:04.309Z,34.69
2022-08-03T13:37:32.532Z,35.06
2022-08-03T13:40:02.666Z,34.44
2022-08-03T13:42:32.976Z,34.70
2022-08-03T13:45:00.874Z,34.78
2022-08-03T13:47:28.523Z,34.90
2022-08-03T13:50:01.730Z,33.98
2022-08-03T13:52:31.761Z,34.34
2022-08-03T13:54:59.082Z,34.13
2022-08-03T13:58:04.794Z,34.59
2022-08-03T14:00:26.391Z,34.78
2022-08-03T14:03:02.792Z,35.07
2022-08-03T14:05:34.910Z,34.33
2022-08-03T14:08:04.014Z,34.60
2022-08-03T14:10:33.665Z,35.18
2022-08-03T14:13:00.804Z,35.35
2022-08-03T14:15:28.943Z,35.50
2022-08-03T14:17:58.771Z,35.01
2022-08-03T14:20:38.717Z,35.10
2022-08-03T14:23:15.003Z,35.04
2022-08-03T14:25:50.179Z,35.43
2022-08-03T14:28:18.865Z,34.42
2022-08-03T14:30:46.364Z,33.92
2022-08-03T14:33:13.375Z,34.01
2022-08-03T14:35:40.887Z,34.57
2022-08-03T14:38:08.039Z,34.80
2022-08-03T14:40:35.194Z,35.09
2022-08-03T14:43:02.822Z,34.56
2022-08-03T14:45:29.968Z,34.68
2022-08-03T14:50:30.058Z,34.91
2022-08-03T14:50:50.144Z,35.15
2022-08-03T14:53:18.754Z,35.34
2022-08-03T14:55:51.547Z,34.96
2022-08-03T14:58:23.800Z,34.75
2022-08-03T15:00:54.413Z,35.86
2022-08-03T15:03:25.578Z,36.08
2022-08-03T15:05:56.203Z,35.47
2022-08-03T15:08:24.851Z,36.14
2022-08-03T15:10:52.537Z,35.56
2022-08-03T15:13:20.427Z,36.13
2022-08-03T15:15:48.552Z,36.14
2022-08-03T15:18:16.076Z,36.28
2022-08-03T15:20:45.560Z,36.16
2022-08-03T15:23:14.075Z,35.62
2022-08-03T15:26:28.008Z,36.50
2022-08-03T15:28:28.695Z,36.79
2022-08-03T15:30:56.593Z,36.42
2022-08-03T15:33:23.701Z,36.37
2022-08-03T15:35:50.679Z,35.77
2022-08-03T15:38:17.909Z,35.84
2022-08-03T15:40:45.358Z,36.55
2022-08-03T15:43:12.555Z,36.16
2022-08-03T15:45:42.002Z,36.86
2022-08-03T15:48:09.217Z,36.37
2022-08-03T15:50:36.695Z,36.25
2022-08-03T15:53:05.064Z,36.52
2022-08-03T15:55:32.377Z,36.88
2022-08-03T15:59:09.397Z,37.12
2022-08-03T16:00:46.868Z,36.75
2022-08-03T16:03:14.232Z,37.08
2022-08-03T16:05:41.546Z,36.90
2022-08-03T16:08:13.559Z,36.99
2022-08-03T16:10:41.142Z,37.03
2022-08-03T16:13:08.816Z,37.37
2022-08-03T16:15:38.351Z,37.48
2022-08-03T16:18:06.582Z,37.35
2022-08-03T16:20:35.061Z,37.51
2022-08-03T16:23:10.599Z,37.61
2022-08-03T16:25:49.155Z,37.30
2022-08-03T16:28:17.487Z,37.42
2022-08-03T16:30:46.883Z,37.60
2022-08-03T16:33:17.401Z,37.54
2022-08-03T16:35:46.798Z,37.66
2022-08-03T16:38:18.561Z,38.04
2022-08-03T16:40:52.566Z,38.30
2022-08-03T16:43:22.247Z,38.31
2022-08-03T16:45:49.797Z,38.15
2022-08-03T16:48:18.369Z,38.64
2022-08-03T16:50:46.188Z,38.79
2022-08-03T16:53:16.737Z,38.75
2022-08-03T16:55:53.788Z,39.13
2022-08-03T16:58:34.233Z,39.20
2022-08-03T17:01:20.927Z,39.27
2022-08-03T17:04:04.708Z,38.92
2022-08-03T17:06:37.530Z,39.12
2022-08-03T17:09:10.576Z,38.86
2022-08-03T17:11:44.052Z,39.32
2022-08-03T17:14:15.699Z,39.45
2022-08-03T17:16:53.042Z,39.70
2022-08-03T17:19:23.513Z,39.76
2022-08-03T17:22:04.169Z,39.93
2022-08-03T17:24:34.757Z,40.41
2022-08-03T17:27:03.438Z,40.29
2022-08-03T17:29:35.272Z,40.62
2022-08-03T17:32:09.769Z,40.74
2022-08-03T17:34:38.909Z,40.77
2022-08-03T17:37:07.045Z,41.00
2022-08-03T17:39:59.445Z,41.17
2022-08-03T17:42:31.632Z,41.21
2022-08-03T17:45:04.003Z,41.06
2022-08-03T17:47:41.161Z,41.04
2022-08-03T17:50:25.100Z,41.18
2022-08-03T17:53:07.606Z,41.44
2022-08-03T17:55:55.978Z,41.46
2022-08-03T17:58:55.176Z,41.68
2022-08-03T18:01:59.529Z,41.66
2022-08-03T18:04:34.986Z,41.97
2022-08-03T18:07:10.972Z,41.80
2022-08-03T18:10:06.331Z,42.13
2022-08-03T18:12:41.421Z,42.01
2022-08-03T18:15:20.862Z,42.51
2022-08-03T18:17:55.411Z,42.94
2022-08-03T18:20:31.210Z,42.66
2022-08-03T18:23:06.358Z,42.92
2022-08-03T18:25:49.150Z,43.20
2022-08-03T18:28:19.210Z,43.30
2022-08-03T18:30:54.101Z,43.34
2022-08-03T18:34:17.948Z,43.30
2022-08-03T18:36:22.127Z,43.95
2022-08-03T18:39:02.372Z,43.73
2022-08-03T18:41:35.011Z,44.08
2022-08-03T18:44:07.207Z,44.20
2022-08-03T18:47:07.264Z,44.17
2022-08-03T18:50:10.030Z,44.12
2022-08-03T18:52:53.151Z,44.26
2022-08-03T18:55:32.992Z,44.42
2022-08-03T18:58:17.899Z,44.66
2022-08-03T19:01:03.376Z,44.94
2022-08-03T19:03:41.289Z,44.68
2022-08-03T19:06:19.924Z,45.15
2022-08-03T19:08:56.287Z,45.19
2022-08-03T19:12:26.179Z,45.21
2022-08-03T19:14:46.083Z,45.45
2022-08-03T19:17:14.305Z,45.55
2022-08-03T19:19:51.597Z,45.58
2022-08-03T19:22:23.254Z,46.02
2022-08-03T19:24:55.418Z,45.90
2022-08-03T19:27:26.846Z,45.83
2022-08-03T19:29:59.750Z,45.93
2022-08-03T19:32:29.712Z,46.02
2022-08-03T19:34:59.662Z,46.39
2022-08-03T19:37:33.279Z,46.37
2022-08-03T19:40:10.221Z,46.86
2022-08-03T19:42:44.735Z,46.57
2022-08-03T19:45:22.065Z,46.84
2022-08-03T19:48:13.991Z,46.95
2022-08-03T19:50:44.388Z,47.05
2022-08-03T19:53:13.344Z,47.25
2022-08-03T19:55:48.991Z,47.20
2022-08-03T19:58:17.727Z,47.39
2022-08-03T20:00:55.860Z,47.63
2022-08-03T20:03:28.030Z,47.38
2022-08-03T20:06:12.662Z,47.79
2022-08-03T20:08:44.439Z,47.78
2022-08-03T20:11:11.875Z,47.76
2022-08-03T20:13:39.364Z,47.67
2022-08-03T20:16:06.932Z,47.74
2022-08-03T20:18:39.444Z,47.81
2022-08-03T20:21:14.960Z,47.98
2022-08-03T20:24:03.360Z,47.86
2022-08-03T20:26:32.468Z,47.82
2022-08-03T20:29:09.235Z,47.87
2022-08-03T20:31:51.112Z,48.42
2022-08-03T20:34:18.176Z,48.39
2022-08-03T20:36:45.337Z,48.15
2022-08-03T20:39:12.412Z,48.10
2022-08-03T20:41:41.052Z,48.59
2022-08-03T20:44:08.179Z,48.45
2022-08-03T20:49:23.787Z,48.28
2022-08-03T20:51:53.116Z,48.47
2022-08-03T20:54:30.611Z,48.48
2022-08-03T20:57:04.087Z,48.49
2022-08-03T20:59:50.800Z,48.49
2022-08-03T21:02:28.813Z,48.64
2022-08-03T21:04:56.747Z,48.99
2022-08-03T21:07:24.393Z,48.80
2022-08-03T21:09:53.681Z,48.93
2022-08-03T21:12:51.032Z,49.06
2022-08-03T21:13:07.421Z,48.28
2022-08-03T21:16:04.865Z,49.17
2022-08-03T21:18:14.837Z,49.46
2022-08-03T21:20:46.735Z,49.42
2022-08-03T21:23:39.899Z,49.19
2022-08-03T21:26:03.171Z,49.59
2022-08-03T21:28:30.408Z,49.79
2022-08-03T21:30:59.119Z,49.91
2022-08-03T21:33:34.200Z,50.25
2022-08-03T21:36:04.487Z,50.31
2022-08-03T21:38:32.618Z,50.53
2022-08-03T21:40:59.748Z,50.59
2022-08-03T21:43:26.937Z,50.76
2022-08-03T21:45:59.013Z,51.03
2022-08-03T21:48:27.597Z,51.19
2022-08-03T21:50:55.104Z,50.92
2022-08-03T21:53:25.978Z,51.23
2022-08-03T21:56:15.780Z,51.30
2022-08-03T21:58:54.069Z,51.50
2022-08-03T22:01:25.418Z,51.43
2022-08-03T22:03:54.709Z,51.82
2022-08-03T22:06:23.020Z,51.71
2022-08-03T22:08:54.570Z,51.93
2022-08-03T22:11:21.755Z,51.88
2022-08-03T22:13:50.847Z,52.08
2022-08-03T22:16:18.980Z,52.21
2022-08-03T22:18:46.408Z,52.22
2022-08-03T22:21:16.652Z,51.75
2022-08-03T22:23:58.991Z,52.12
2022-08-03T22:26:32.245Z,51.94
2022-08-03T22:29:19.422Z,52.02
2022-08-03T22:31:58.151Z,51.96
2022-08-03T22:34:27.281Z,51.83
2022-08-03T22:37:00.342Z,51.94
2022-08-03T22:39:29.369Z,51.86
2022-08-03T22:41:59.852Z,51.92
2022-08-03T22:44:28.276Z,51.80
2022-08-03T22:46:56.259Z,52.13
2022-08-03T22:49:24.179Z,52.04
2022-08-03T22:51:53.741Z,52.24
2022-08-03T22:54:21.158Z,52.07
2022-08-03T22:56:49.374Z,51.88
2022-08-03T22:59:41.100Z,51.59
2022-08-03T23:02:22.680Z,51.82
2022-08-03T23:04:52.899Z,51.97
2022-08-03T23:07:21.550Z,51.60
2022-08-03T23:09:49.908Z,51.23
2022-08-03T23:12:20.475Z,51.71
2022-08-03T23:15:01.677Z,51.33
2022-08-03T23:17:31.379Z,50.91
2022-08-03T23:20:08.779Z,50.99
2022-08-03T23:22:39.616Z,50.51
2022-08-03T23:25:10.937Z,50.69
2022-08-03T23:27:48.835Z,50.54
2022-08-03T23:30:37.690Z,50.68
2022-08-03T23:33:06.951Z,50.21
2022-08-03T23:36:27.550Z,50.23
2022-08-03T23:38:43.708Z,49.85
2022-08-03T23:41:11.144Z,49.72
2022-08-03T23:43:50.777Z,49.75
2022-08-03T23:46:21.855Z,49.85
2022-08-03T23:48:48.949Z,49.78
2022-08-03T23:51:57.224Z,49.58
2022-08-03T23:55:06.160Z,50.15
2022-08-03T23:57:38.138Z,49.27
